Time;durP1;ratioP1;P1;durP2;ratioP2;P2;SDS_P1;SDS_P2;PMS_P1;PMS_P2;Temp;Humidity;BMP_temperature;BMP_pressure;BME280_temperature;BME280_humidity;BME280_pressure;Samples;Min_cycle;Max_cycle;Signal;HPM_P1;HPM_P2
2023/10/22 00:00:07;;;;;;;2.15;0.50;;;;;;;;;;5065856;28;20133;-66
2023/10/22 00:02:35;;;;;;;3.45;0.70;;;;;;;;;;5053091;28;20048;-64
2023/10/22 00:05:04;;;;;;;3.42;0.65;;;;;;;;;;5051505;28;20422;-66
2023/10/22 00:07:31;;;;;;;8.70;0.63;;;;;;;;;;5053003;28;20063;-66
2023/10/22 00:09:59;;;;;;;5.32;0.82;;;;;;;;;;5061376;28;20061;-65
2023/10/22 00:12:26;;;;;;;6.22;0.60;;;;;;;;;;5059836;28;20067;-65
2023/10/22 00:14:53;;;;;;;2.92;0.65;;;;;;;;;;5063310;28;20044;-67
2023/10/22 00:17:21;;;;;;;3.88;0.70;;;;;;;;;;5056916;28;20523;-64
2023/10/22 00:19:48;;;;;;;3.78;0.50;;;;;;;;;;5063701;28;20056;-64
2023/10/22 00:22:17;;;;;;;1.70;0.50;;;;;;;;;;5066815;28;20053;-64
2023/10/22 00:24:44;;;;;;;6.78;0.50;;;;;;;;;;5061748;28;20097;-64
2023/10/22 00:27:11;;;;;;;4.55;0.60;;;;;;;;;;5060053;28;20044;-67
2023/10/22 00:29:39;;;;;;;8.07;1.05;;;;;;;;;;5064781;28;20048;-64
2023/10/22 00:32:07;;;;;;;6.25;1.00;;;;;;;;;;5061429;28;20059;-67
2023/10/22 00:34:34;;;;;;;5.72;0.80;;;;;;;;;;5054665;28;20098;-65
2023/10/22 00:37:01;;;;;;;3.85;0.73;;;;;;;;;;5058567;28;20057;-64
2023/10/22 00:39:30;;;;;;;1.52;0.45;;;;;;;;;;5060413;28;20109;-64
2023/10/22 00:41:57;;;;;;;2.90;0.73;;;;;;;;;;5059939;28;20131;-66
2023/10/22 00:44:25;;;;;;;1.55;0.50;;;;;;;;;;5055335;28;20044;-65
2023/10/22 00:46:52;;;;;;;2.90;0.50;;;;;;;;;;5063889;28;20049;-68
2023/10/22 00:49:20;;;;;;;3.00;0.68;;;;;;;;;;5059116;28;20052;-64
2023/10/22 00:51:48;;;;;;;2.63;0.60;;;;;;;;;;5058800;28;20052;-66
2023/10/22 00:54:16;;;;;;;3.55;0.60;;;;;;;;;;5059246;28;20072;-65
2023/10/22 00:56:45;;;;;;;3.53;0.57;;;;;;;;;;5050472;28;20058;-66
2023/10/22 00:59:12;;;;;;;7.43;0.50;;;;;;;;;;5055748;28;20077;-66
2023/10/22 01:01:39;;;;;;;4.03;0.70;;;;;;;;;;5057465;28;20913;-67
2023/10/22 01:04:07;;;;;;;2.08;0.75;;;;;;;;;;5059142;28;20045;-65
2023/10/22 01:06:34;;;;;;;4.05;0.57;;;;;;;;;;5058549;28;20047;-65
2023/10/22 01:09:02;;;;;;;1.65;0.50;;;;;;;;;;5060232;28;20048;-66
2023/10/22 01:11:29;;;;;;;4.32;0.40;;;;;;;;;;5057562;28;20055;-65
2023/10/22 01:13:58;;;;;;;5.28;0.65;;;;;;;;;;5061600;28;20044;-64
2023/10/22 01:16:26;;;;;;;4.13;0.50;;;;;;;;;;5060471;28;20260;-65
2023/10/22 01:18:53;;;;;;;1.83;0.40;;;;;;;;;;5055769;28;20059;-65
2023/10/22 01:21:20;;;;;;;5.80;0.70;;;;;;;;;;5059317;28;20052;-65
2023/10/22 01:23:49;;;;;;;2.72;0.40;;;;;;;;;;5071972;28;20050;-64
2023/10/22 01:26:16;;;;;;;1.40;0.45;;;;;;;;;;5063905;28;20530;-64
2023/10/22 01:28:43;;;;;;;3.47;0.50;;;;;;;;;;5065303;28;20056;-65
2023/10/22 01:31:16;;;;;;;3.70;0.88;;;;;;;;;;5061075;28;20049;-64
2023/10/22 01:33:43;;;;;;;5.70;0.85;;;;;;;;;;5064319;28;20079;-65
2023/10/22 01:36:11;;;;;;;4.85;0.57;;;;;;;;;;5061434;28;20460;-64
2023/10/22 01:38:38;;;;;;;2.10;0.98;;;;;;;;;;5068984;28;20056;-68
2023/10/22 01:41:08;;;;;;;5.57;0.70;;;;;;;;;;5053719;28;20048;-65
2023/10/22 01:43:35;;;;;;;5.85;0.68;;;;;;;;;;5064627;28;20082;-65
2023/10/22 01:46:03;;;;;;;3.75;0.70;;;;;;;;;;5060385;28;20052;-64
2023/10/22 01:48:30;;;;;;;3.17;0.82;;;;;;;;;;5064330;28;20048;-65
2023/10/22 01:50:57;;;;;;;2.03;0.68;;;;;;;;;;5056965;28;20060;-64
2023/10/22 01:53:24;;;;;;;2.08;0.55;;;;;;;;;;5066037;28;20048;-66
2023/10/22 01:55:52;;;;;;;1.77;0.70;;;;;;;;;;5064153;28;20063;-65
2023/10/22 01:58:20;;;;;;;3.40;0.90;;;;;;;;;;5055655;28;20044;-64
2023/10/22 02:00:48;;;;;;;4.07;0.60;;;;;;;;;;5056508;28;20053;-65
2023/10/22 02:03:15;;;;;;;2.55;0.80;;;;;;;;;;5057778;28;20048;-65
2023/10/22 02:05:43;;;;;;;2.30;0.90;;;;;;;;;;5061831;28;20057;-64
2023/10/22 02:08:10;;;;;;;1.30;0.60;;;;;;;;;;5065313;28;20063;-65
2023/10/22 02:10:37;;;;;;;3.33;0.80;;;;;;;;;;5064855;28;20629;-65
2023/10/22 02:13:04;;;;;;;2.30;0.75;;;;;;;;;;5057429;28;20055;-65
2023/10/22 02:15:33;;;;;;;1.60;0.55;;;;;;;;;;5060857;28;20045;-66
2023/10/22 02:18:00;;;;;;;3.25;0.60;;;;;;;;;;5057545;28;20077;-64
2023/10/22 02:20:28;;;;;;;1.15;0.50;;;;;;;;;;5054629;28;20064;-65
2023/10/22 02:22:57;;;;;;;1.20;0.60;;;;;;;;;;5060668;28;20496;-64
2023/10/22 02:25:24;;;;;;;3.33;0.82;;;;;;;;;;5059461;28;20055;-65
2023/10/22 02:27:53;;;;;;;1.77;0.80;;;;;;;;;;5056146;28;20405;-65
2023/10/22 02:30:20;;;;;;;1.60;0.60;;;;;;;;;;5060375;28;20510;-65
2023/10/22 02:32:49;;;;;;;1.67;0.80;;;;;;;;;;5066805;28;20061;-65
2023/10/22 02:35:16;;;;;;;1.23;0.63;;;;;;;;;;5066720;28;20052;-65
2023/10/22 02:37:43;;;;;;;1.17;0.60;;;;;;;;;;5059128;28;20056;-65
2023/10/22 02:40:12;;;;;;;0.85;0.70;;;;;;;;;;5068643;28;20054;-64
2023/10/22 02:42:39;;;;;;;1.48;0.90;;;;;;;;;;5065006;28;20048;-64
2023/10/22 02:45:06;;;;;;;1.70;0.70;;;;;;;;;;5059298;28;20390;-65
2023/10/22 02:47:34;;;;;;;1.70;0.77;;;;;;;;;;5056530;28;20045;-64
2023/10/22 02:50:04;;;;;;;5.45;0.80;;;;;;;;;;5059810;28;20053;-64
2023/10/22 02:52:31;;;;;;;2.15;0.80;;;;;;;;;;5061129;28;20527;-64
2023/10/22 02:54:58;;;;;;;1.95;0.70;;;;;;;;;;5059875;28;20144;-64
2023/10/22 02:57:25;;;;;;;2.22;0.85;;;;;;;;;;5060065;28;20060;-65
2023/10/22 02:59:53;;;;;;;3.38;1.00;;;;;;;;;;5065137;28;20518;-65
2023/10/22 03:02:20;;;;;;;2.30;1.00;;;;;;;;;;5065089;28;20052;-65
2023/10/22 03:04:47;;;;;;;1.15;0.73;;;;;;;;;;5065271;28;20044;-65
2023/10/22 03:07:16;;;;;;;2.72;0.90;;;;;;;;;;5056312;28;20048;-65
2023/10/22 03:09:43;;;;;;;1.42;0.90;;;;;;;;;;5057682;28;20053;-67
2023/10/22 03:12:11;;;;;;;2.58;1.30;;;;;;;;;;5061864;28;20048;-64
2023/10/22 03:14:38;;;;;;;1.35;0.82;;;;;;;;;;5062905;28;20165;-65
2023/10/22 03:17:06;;;;;;;3.00;0.80;;;;;;;;;;5063718;28;20052;-64
2023/10/22 03:19:33;;;;;;;2.90;1.10;;;;;;;;;;5057403;28;20488;-64
2023/10/22 03:22:00;;;;;;;1.98;1.00;;;;;;;;;;5063152;28;20056;-64
2023/10/22 03:24:30;;;;;;;1.95;0.90;;;;;;;;;;5064226;28;20052;-65
2023/10/22 03:26:57;;;;;;;2.10;0.85;;;;;;;;;;5057534;28;20498;-65
2023/10/22 03:29:25;;;;;;;4.47;1.00;;;;;;;;;;5055206;28;20103;-64
2023/10/22 03:31:52;;;;;;;1.63;0.90;;;;;;;;;;5056053;28;20061;-65
2023/10/22 03:34:19;;;;;;;2.58;0.93;;;;;;;;;;5051636;28;20101;-64
2023/10/22 03:36:47;;;;;;;3.50;1.08;;;;;;;;;;5052662;28;20613;-65
2023/10/22 03:39:15;;;;;;;1.77;1.10;;;;;;;;;;5054329;28;20509;-64
2023/10/22 03:41:44;;;;;;;2.08;1.23;;;;;;;;;;5058043;28;20048;-64
2023/10/22 03:44:11;;;;;;;1.80;1.15;;;;;;;;;;5051879;28;20063;-64
2023/10/22 03:46:38;;;;;;;1.50;1.23;;;;;;;;;;5061060;28;20076;-64
2023/10/22 03:49:06;;;;;;;3.25;1.30;;;;;;;;;;5055022;28;20049;-65
2023/10/22 03:51:33;;;;;;;3.60;1.13;;;;;;;;;;5052749;28;20045;-65
2023/10/22 03:54:00;;;;;;;3.40;1.45;;;;;;;;;;5065205;28;20041;-63
2023/10/22 03:56:27;;;;;;;1.85;1.25;;;;;;;;;;5061826;28;20040;-65
2023/10/22 03:58:56;;;;;;;2.05;1.20;;;;;;;;;;5064144;28;20044;-65
2023/10/22 04:01:23;;;;;;;1.90;1.40;;;;;;;;;;5062512;28;20048;-64
2023/10/22 04:03:51;;;;;;;4.95;1.75;;;;;;;;;;5061321;28;20067;-64
2023/10/22 04:06:18;;;;;;;4.95;1.73;;;;;;;;;;5016007;28;20489;-66
2023/10/22 04:08:45;;;;;;;4.68;1.90;;;;;;;;;;5023301;28;20045;-64
2023/10/22 04:11:12;;;;;;;3.85;2.00;;;;;;;;;;5016321;28;20057;-65
2023/10/22 04:13:40;;;;;;;3.65;2.08;;;;;;;;;;5017600;28;20714;-65
2023/10/22 04:16:15;;;;;;;5.25;2.40;;;;;;;;;;5026017;28;20500;-65
2023/10/22 04:18:42;;;;;;;4.68;2.38;;;;;;;;;;5024810;28;20053;-64
2023/10/22 04:21:13;;;;;;;4.90;2.25;;;;;;;;;;5026619;28;20052;-66
2023/10/22 04:23:40;;;;;;;4.28;2.33;;;;;;;;;;5020483;28;20138;-64
2023/10/22 04:26:12;;;;;;;6.53;2.50;;;;;;;;;;5018505;28;20045;-64
2023/10/22 04:28:39;;;;;;;5.40;2.97;;;;;;;;;;5020144;28;20054;-64
2023/10/22 04:31:08;;;;;;;5.32;3.08;;;;;;;;;;5017109;28;20069;-65
2023/10/22 04:33:36;;;;;;;4.28;2.78;;;;;;;;;;5026956;28;20049;-63
2023/10/22 04:36:04;;;;;;;4.25;3.40;;;;;;;;;;5024857;28;20393;-65
2023/10/22 04:38:31;;;;;;;9.85;4.10;;;;;;;;;;5034373;28;20049;-64
2023/10/22 04:40:58;;;;;;;7.38;4.88;;;;;;;;;;5020979;28;20057;-64
2023/10/22 04:43:26;;;;;;;8.00;4.32;;;;;;;;;;5020400;28;20156;-64
2023/10/22 04:45:53;;;;;;;11.38;5.25;;;;;;;;;;5022305;28;20088;-65
2023/10/22 04:48:21;;;;;;;10.85;5.03;;;;;;;;;;5022487;28;20046;-65
2023/10/22 04:50:49;;;;;;;8.63;5.30;;;;;;;;;;5018217;28;20053;-64
2023/10/22 04:53:16;;;;;;;10.73;5.88;;;;;;;;;;5026492;28;20054;-64
2023/10/22 04:55:43;;;;;;;12.20;5.88;;;;;;;;;;5026673;28;20511;-64
2023/10/22 04:58:11;;;;;;;9.75;5.85;;;;;;;;;;5023050;28;20054;-65
2023/10/22 05:00:39;;;;;;;12.35;6.57;;;;;;;;;;5021214;28;20152;-66
2023/10/22 05:03:06;;;;;;;12.40;5.97;;;;;;;;;;5030044;28;20054;-65
2023/10/22 05:05:36;;;;;;;10.32;6.38;;;;;;;;;;5056497;28;20045;-64
2023/10/22 05:08:05;;;;;;;9.57;6.70;;;;;;;;;;5063654;28;20052;-65
2023/10/22 05:10:32;;;;;;;10.10;6.45;;;;;;;;;;5060636;28;20052;-67
2023/10/22 05:12:59;;;;;;;8.95;6.30;;;;;;;;;;5063556;28;20084;-64
2023/10/22 05:15:27;;;;;;;9.27;6.55;;;;;;;;;;5055292;28;20051;-63
2023/10/22 05:17:55;;;;;;;11.43;6.05;;;;;;;;;;5063076;28;20504;-64
2023/10/22 05:20:22;;;;;;;6.68;3.10;;;;;;;;;;5066272;28;20545;-64
2023/10/22 05:22:50;;;;;;;7.35;2.15;;;;;;;;;;5059540;28;20061;-66
2023/10/22 05:25:18;;;;;;;3.90;1.00;;;;;;;;;;5053810;28;20049;-67
2023/10/22 05:27:45;;;;;;;6.07;0.80;;;;;;;;;;5060082;28;20151;-67
2023/10/22 05:30:13;;;;;;;4.60;0.38;;;;;;;;;;5063994;28;20048;-65
2023/10/22 05:32:40;;;;;;;4.05;0.55;;;;;;;;;;5062879;28;20056;-64
2023/10/22 05:35:08;;;;;;;3.30;0.57;;;;;;;;;;5063494;28;20044;-65
2023/10/22 05:37:35;;;;;;;3.03;0.88;;;;;;;;;;5066679;28;20060;-64
2023/10/22 05:40:04;;;;;;;7.20;1.88;;;;;;;;;;5060142;28;20056;-65
2023/10/22 05:42:31;;;;;;;5.53;0.90;;;;;;;;;;5055824;28;20053;-64
2023/10/22 05:45:00;;;;;;;5.38;0.80;;;;;;;;;;5057293;28;20060;-64
2023/10/22 05:47:31;;;;;;;5.30;0.77;;;;;;;;;;5060048;28;20044;-65
2023/10/22 05:49:59;;;;;;;7.00;0.85;;;;;;;;;;5064546;28;20113;-65
2023/10/22 05:52:28;;;;;;;5.20;0.60;;;;;;;;;;5053197;28;20053;-65
2023/10/22 05:54:55;;;;;;;6.50;0.93;;;;;;;;;;5056426;28;20044;-65
2023/10/22 05:57:28;;;;;;;10.82;0.93;;;;;;;;;;5052933;28;20049;-65
2023/10/22 05:59:57;;;;;;;5.28;0.77;;;;;;;;;;5058303;28;20060;-67
2023/10/22 06:02:24;;;;;;;4.05;0.70;;;;;;;;;;5059607;28;20084;-67
2023/10/22 06:04:52;;;;;;;7.32;0.85;;;;;;;;;;5059027;28;20091;-66
2023/10/22 06:07:19;;;;;;;9.73;1.23;;;;;;;;;;5053259;28;20043;-65
2023/10/22 06:09:47;;;;;;;6.95;1.00;;;;;;;;;;5060430;28;20052;-65
2023/10/22 06:12:15;;;;;;;7.82;1.13;;;;;;;;;;5054815;28;20099;-65
2023/10/22 06:14:44;;;;;;;7.30;1.00;;;;;;;;;;5055027;28;20048;-66
2023/10/22 06:17:11;;;;;;;5.55;1.00;;;;;;;;;;5057774;28;20045;-65
2023/10/22 06:19:38;;;;;;;7.00;0.80;;;;;;;;;;5058084;28;20056;-65
2023/10/22 06:22:05;;;;;;;5.47;1.00;;;;;;;;;;5058246;28;20067;-66
2023/10/22 06:24:33;;;;;;;5.13;0.85;;;;;;;;;;5053585;28;20676;-66
2023/10/22 06:27:00;;;;;;;3.45;0.90;;;;;;;;;;5056288;28;20040;-66
2023/10/22 06:29:27;;;;;;;4.72;1.02;;;;;;;;;;5054450;28;20545;-65
2023/10/22 06:31:56;;;;;;;3.28;0.65;;;;;;;;;;5054479;28;20049;-65
2023/10/22 06:34:23;;;;;;;6.80;0.65;;;;;;;;;;5060040;28;20045;-66
2023/10/22 06:36:51;;;;;;;4.30;0.80;;;;;;;;;;5054769;28;20055;-65
2023/10/22 06:39:18;;;;;;;6.93;0.90;;;;;;;;;;5053567;28;20135;-65
2023/10/22 06:41:45;;;;;;;9.13;0.77;;;;;;;;;;5052463;28;20131;-66
2023/10/22 06:44:12;;;;;;;4.68;1.20;;;;;;;;;;5055184;28;20044;-67
2023/10/22 06:46:40;;;;;;;4.68;0.80;;;;;;;;;;5051737;28;20472;-65
2023/10/22 06:49:09;;;;;;;6.90;0.85;;;;;;;;;;5053735;28;20508;-65
2023/10/22 06:51:38;;;;;;;5.85;1.00;;;;;;;;;;5051106;28;20059;-65
2023/10/22 06:54:06;;;;;;;6.40;0.80;;;;;;;;;;5064026;28;20049;-65
2023/10/22 06:56:33;;;;;;;7.15;0.90;;;;;;;;;;5062567;28;20067;-64
2023/10/22 06:59:02;;;;;;;2.45;0.88;;;;;;;;;;5056965;28;20041;-65
2023/10/22 07:01:29;;;;;;;5.35;1.40;;;;;;;;;;5055185;28;20140;-65
2023/10/22 07:03:57;;;;;;;13.60;1.95;;;;;;;;;;5059584;28;20044;-66
2023/10/22 07:06:26;;;;;;;4.75;1.00;;;;;;;;;;5056417;28;20064;-65
2023/10/22 07:08:53;;;;;;;9.40;1.10;;;;;;;;;;5058453;28;20041;-66
2023/10/22 07:11:20;;;;;;;11.93;1.10;;;;;;;;;;5054448;28;20056;-66
2023/10/22 07:13:48;;;;;;;5.07;1.20;;;;;;;;;;5062071;28;20045;-67
2023/10/22 07:16:15;;;;;;;3.88;1.00;;;;;;;;;;5055882;28;20056;-65
2023/10/22 07:18:43;;;;;;;3.85;0.93;;;;;;;;;;5060324;28;20045;-66
2023/10/22 07:21:10;;;;;;;8.77;1.10;;;;;;;;;;5054740;28;20491;-65
2023/10/22 07:23:39;;;;;;;2.10;0.73;;;;;;;;;;5055813;28;20502;-65
2023/10/22 07:26:06;;;;;;;7.28;1.30;;;;;;;;;;5057462;28;20075;-65
2023/10/22 07:28:33;;;;;;;6.20;1.25;;;;;;;;;;5062110;28;20048;-64
2023/10/22 07:31:00;;;;;;;3.55;1.15;;;;;;;;;;5062371;28;20044;-65
2023/10/22 07:33:28;;;;;;;4.93;1.20;;;;;;;;;;5051434;28;20044;-66
2023/10/22 07:35:55;;;;;;;4.35;0.95;;;;;;;;;;5056839;28;20040;-64
2023/10/22 07:38:23;;;;;;;3.83;1.00;;;;;;;;;;5057503;28;20571;-65
2023/10/22 07:40:55;;;;;;;4.38;0.88;;;;;;;;;;5058192;28;20051;-64
2023/10/22 07:43:24;;;;;;;5.72;1.40;;;;;;;;;;5055147;28;20167;-64
2023/10/22 07:45:51;;;;;;;6.20;1.00;;;;;;;;;;5055579;28;20091;-65
2023/10/22 07:48:18;;;;;;;5.03;1.00;;;;;;;;;;5051754;28;20041;-65
2023/10/22 07:50:45;;;;;;;3.53;0.80;;;;;;;;;;5052281;28;20048;-65
2023/10/22 07:53:13;;;;;;;3.60;0.90;;;;;;;;;;5057592;28;20254;-65
2023/10/22 07:55:42;;;;;;;9.80;1.02;;;;;;;;;;5052098;28;20094;-65
2023/10/22 07:58:11;;;;;;;3.40;0.68;;;;;;;;;;5058707;28;20549;-66
2023/10/22 08:00:38;;;;;;;5.93;0.95;;;;;;;;;;5056006;28;20045;-64
2023/10/22 08:03:06;;;;;;;5.50;0.80;;;;;;;;;;5060154;28;21046;-66
2023/10/22 08:05:33;;;;;;;4.57;0.68;;;;;;;;;;5061912;28;20068;-66
2023/10/22 08:08:01;;;;;;;2.90;0.70;;;;;;;;;;5063517;28;20056;-65
2023/10/22 08:10:29;;;;;;;2.75;0.60;;;;;;;;;;5057331;28;20060;-65
2023/10/22 08:12:56;;;;;;;5.70;0.77;;;;;;;;;;5060951;28;20106;-66
2023/10/22 08:15:25;;;;;;;1.88;0.55;;;;;;;;;;5062003;28;20056;-66
2023/10/22 08:17:52;;;;;;;5.03;0.52;;;;;;;;;;5058823;28;20045;-66
2023/10/22 08:20:19;;;;;;;4.13;0.98;;;;;;;;;;5063936;28;20475;-66
2023/10/22 08:22:46;;;;;;;5.82;0.60;;;;;;;;;;5061744;28;20052;-65
2023/10/22 08:25:14;;;;;;;3.40;0.47;;;;;;;;;;5066400;28;20060;-65
2023/10/22 08:27:41;;;;;;;6.13;0.63;;;;;;;;;;5056343;28;20507;-68
2023/10/22 08:30:09;;;;;;;4.40;0.73;;;;;;;;;;5062806;28;20048;-65
2023/10/22 08:32:43;;;;;;;4.40;0.70;;;;;;;;;;5058422;28;20053;-65
2023/10/22 08:35:11;;;;;;;5.53;0.80;;;;;;;;;;5057563;28;20052;-65
2023/10/22 08:37:39;;;;;;;5.00;0.75;;;;;;;;;;5060452;28;20045;-65
2023/10/22 08:40:08;;;;;;;4.00;0.60;;;;;;;;;;5056845;28;20062;-66
2023/10/22 08:42:36;;;;;;;3.40;0.70;;;;;;;;;;5058999;28;20158;-65
2023/10/22 08:45:04;;;;;;;2.15;0.60;;;;;;;;;;5057247;28;20067;-66
2023/10/22 08:47:31;;;;;;;3.40;0.70;;;;;;;;;;5054694;28;20053;-63
2023/10/22 08:50:01;;;;;;;3.90;0.50;;;;;;;;;;5052944;28;20067;-66
2023/10/22 08:52:28;;;;;;;6.25;0.45;;;;;;;;;;5061090;28;20097;-64
2023/10/22 08:54:55;;;;;;;2.95;0.75;;;;;;;;;;5049752;28;20089;-63
2023/10/22 08:57:24;;;;;;;3.10;0.50;;;;;;;;;;5054210;28;20400;-64
2023/10/22 08:59:52;;;;;;;4.50;0.80;;;;;;;;;;5056779;28;20094;-64
2023/10/22 09:02:23;;;;;;;3.00;0.63;;;;;;;;;;5055701;28;20056;-63
2023/10/22 09:04:50;;;;;;;4.53;0.50;;;;;;;;;;5054519;28;20544;-65
2023/10/22 09:07:19;;;;;;;5.32;0.88;;;;;;;;;;5057999;28;20044;-64
2023/10/22 09:09:46;;;;;;;4.20;0.60;;;;;;;;;;5061375;28;20404;-65
2023/10/22 09:12:14;;;;;;;3.65;0.60;;;;;;;;;;5056599;28;20504;-65
2023/10/22 09:14:44;;;;;;;2.42;0.45;;;;;;;;;;5052959;28;20156;-64
2023/10/22 09:17:17;;;;;;;3.85;0.50;;;;;;;;;;5063299;28;20561;-63
2023/10/22 09:19:47;;;;;;;7.22;0.52;;;;;;;;;;5062031;28;20063;-63
2023/10/22 09:22:23;;;;;;;2.28;0.47;;;;;;;;;;5059234;28;20117;-64
2023/10/22 09:24:53;;;;;;;7.25;0.65;;;;;;;;;;5062494;28;20053;-64
2023/10/22 09:27:30;;;;;;;3.25;0.55;;;;;;;;;;5053177;28;20048;-64
2023/10/22 09:29:58;;;;;;;5.47;0.70;;;;;;;;;;5053039;28;20052;-65
2023/10/22 09:32:26;;;;;;;4.78;0.60;;;;;;;;;;5053657;28;20045;-63
2023/10/22 09:34:53;;;;;;;4.15;0.60;;;;;;;;;;5060147;28;20048;-64
2023/10/22 09:37:20;;;;;;;2.10;0.40;;;;;;;;;;5056757;28;20067;-64
2023/10/22 09:39:49;;;;;;;5.30;0.50;;;;;;;;;;5056298;28;20045;-66
2023/10/22 09:42:16;;;;;;;1.50;0.30;;;;;;;;;;5063108;28;20055;-65
2023/10/22 09:44:44;;;;;;;2.85;0.60;;;;;;;;;;5062365;28;20047;-64
2023/10/22 09:47:15;;;;;;;4.35;0.50;;;;;;;;;;5066432;28;20128;-64
2023/10/22 09:49:43;;;;;;;7.47;0.57;;;;;;;;;;5063292;28;20387;-64
2023/10/22 09:52:12;;;;;;;5.72;0.50;;;;;;;;;;5061135;28;20132;-63
2023/10/22 09:54:40;;;;;;;7.47;0.57;;;;;;;;;;5066559;28;20135;-64
2023/10/22 09:57:10;;;;;;;8.15;0.85;;;;;;;;;;5060387;28;20049;-64
2023/10/22 09:59:38;;;;;;;3.97;0.40;;;;;;;;;;5059935;28;20045;-64
2023/10/22 10:02:05;;;;;;;1.90;0.35;;;;;;;;;;5063899;28;20063;-64
2023/10/22 10:04:35;;;;;;;4.88;0.43;;;;;;;;;;5067336;28;20071;-64
2023/10/22 10:07:04;;;;;;;1.63;0.25;;;;;;;;;;5069437;28;20123;-64
2023/10/22 10:09:32;;;;;;;1.60;0.40;;;;;;;;;;5067963;28;20450;-64
2023/10/22 10:12:01;;;;;;;3.30;0.55;;;;;;;;;;5053353;28;20048;-64
2023/10/22 10:14:43;;;;;;;1.15;0.32;;;;;;;;;;5065373;28;20037;-65
2023/10/22 10:17:11;;;;;;;1.58;0.32;;;;;;;;;;5063512;28;20044;-63
2023/10/22 10:19:38;;;;;;;2.58;0.30;;;;;;;;;;5058287;28;20086;-63
2023/10/22 10:22:05;;;;;;;4.70;0.40;;;;;;;;;;5055583;28;20446;-64
2023/10/22 10:24:33;;;;;;;2.85;0.65;;;;;;;;;;5059011;28;20119;-64
2023/10/22 10:27:31;;;;;;;5.53;0.47;;;;;;;;;;5068932;28;20090;-65
2023/10/22 10:30:16;;;;;;;3.63;0.63;;;;;;;;;;4993738;28;20121;-65
2023/10/22 10:32:46;;;;;;;1.70;0.40;;;;;;;;;;5046108;28;20052;-63
2023/10/22 10:35:14;;;;;;;2.22;0.40;;;;;;;;;;5059271;28;20073;-65
2023/10/22 10:38:02;;;;;;;3.72;0.47;;;;;;;;;;5054450;28;20431;-65
2023/10/22 10:40:41;;;;;;;4.57;0.57;;;;;;;;;;5053288;28;20068;-64
2023/10/22 10:43:09;;;;;;;3.35;0.65;;;;;;;;;;5056049;28;20053;-65
2023/10/22 10:45:38;;;;;;;2.42;0.30;;;;;;;;;;5063411;28;20053;-63
2023/10/22 10:48:06;;;;;;;2.75;0.50;;;;;;;;;;5058177;28;20214;-67
2023/10/22 10:50:34;;;;;;;1.42;0.52;;;;;;;;;;5057794;28;20128;-64
2023/10/22 10:53:02;;;;;;;1.10;0.20;;;;;;;;;;5061485;28;20431;-64
2023/10/22 10:55:32;;;;;;;3.65;0.50;;;;;;;;;;5061455;28;20053;-65
2023/10/22 10:58:00;;;;;;;2.08;0.30;;;;;;;;;;5061714;28;20045;-64
2023/10/22 11:00:30;;;;;;;1.85;0.32;;;;;;;;;;5063236;28;20055;-64
2023/10/22 11:02:58;;;;;;;0.98;0.30;;;;;;;;;;5058337;28;21260;-64
2023/10/22 11:05:36;;;;;;;1.17;0.47;;;;;;;;;;5058210;28;20083;-63
2023/10/22 11:08:04;;;;;;;3.88;0.65;;;;;;;;;;5052962;28;20128;-64
2023/10/22 11:10:31;;;;;;;2.53;0.50;;;;;;;;;;5060776;28;20057;-64
2023/10/22 11:13:03;;;;;;;2.95;0.30;;;;;;;;;;5055926;28;20041;-64
2023/10/22 11:15:34;;;;;;;3.97;0.60;;;;;;;;;;5057491;28;20052;-64
2023/10/22 11:18:02;;;;;;;2.95;0.38;;;;;;;;;;5058750;28;20088;-65
2023/10/22 11:20:29;;;;;;;3.78;0.50;;;;;;;;;;5055811;28;20047;-64
2023/10/22 11:22:58;;;;;;;5.30;0.40;;;;;;;;;;5055098;28;20044;-64
2023/10/22 11:25:26;;;;;;;2.63;0.65;;;;;;;;;;5068629;28;20141;-68
2023/10/22 11:27:54;;;;;;;4.13;0.47;;;;;;;;;;5061155;28;20048;-63
2023/10/22 11:30:36;;;;;;;1.92;0.35;;;;;;;;;;5059852;28;20095;-64
2023/10/22 11:33:04;;;;;;;2.83;0.33;;;;;;;;;;5052089;28;20049;-65
2023/10/22 11:35:32;;;;;;;1.40;0.40;;;;;;;;;;5059129;28;20044;-64
2023/10/22 11:38:00;;;;;;;1.65;0.40;;;;;;;;;;5067689;28;20048;-64
2023/10/22 11:40:28;;;;;;;2.50;0.30;;;;;;;;;;5063256;28;20045;-64
2023/10/22 11:42:56;;;;;;;0.95;0.30;;;;;;;;;;5066426;28;20411;-64
2023/10/22 11:45:23;;;;;;;2.45;0.20;;;;;;;;;;5061912;28;20094;-64
2023/10/22 11:47:50;;;;;;;4.95;0.45;;;;;;;;;;5066764;28;20048;-64
2023/10/22 11:50:18;;;;;;;0.77;0.30;;;;;;;;;;5056206;28;20130;-64
2023/10/22 11:52:52;;;;;;;1.65;0.40;;;;;;;;;;5056725;28;20059;-64
2023/10/22 11:55:21;;;;;;;0.77;0.38;;;;;;;;;;5066448;28;20052;-64
2023/10/22 11:57:48;;;;;;;0.22;0.20;;;;;;;;;;5055966;28;21352;-64
2023/10/22 12:00:16;;;;;;;2.10;0.50;;;;;;;;;;5062379;28;20364;-65
2023/10/22 12:02:43;;;;;;;3.55;0.50;;;;;;;;;;5055204;28;20041;-64
2023/10/22 12:05:12;;;;;;;1.63;0.40;;;;;;;;;;5056151;28;20102;-64
2023/10/22 12:07:39;;;;;;;1.80;0.40;;;;;;;;;;5054884;28;20098;-64
2023/10/22 12:10:07;;;;;;;2.50;0.30;;;;;;;;;;5058196;28;20048;-64
2023/10/22 12:12:35;;;;;;;3.50;0.32;;;;;;;;;;5051534;28;20044;-65
2023/10/22 12:15:04;;;;;;;1.52;0.40;;;;;;;;;;5057294;28;20045;-64
2023/10/22 12:17:31;;;;;;;1.05;0.30;;;;;;;;;;5058254;28;20063;-66
2023/10/22 12:19:58;;;;;;;0.20;0.20;;;;;;;;;;5060490;28;20041;-64
2023/10/22 12:22:26;;;;;;;3.40;0.40;;;;;;;;;;5058271;28;20535;-63
2023/10/22 12:24:56;;;;;;;1.55;0.40;;;;;;;;;;5066129;28;20399;-65
2023/10/22 12:27:25;;;;;;;1.58;0.50;;;;;;;;;;5059367;28;20079;-65
2023/10/22 12:29:53;;;;;;;1.85;0.45;;;;;;;;;;5058683;28;20139;-64
2023/10/22 12:32:20;;;;;;;0.63;0.22;;;;;;;;;;5056405;28;20055;-64
2023/10/22 12:34:48;;;;;;;2.65;0.38;;;;;;;;;;5054401;28;20052;-64
2023/10/22 12:37:15;;;;;;;4.63;0.60;;;;;;;;;;5059277;28;20426;-66
2023/10/22 12:39:42;;;;;;;0.50;0.40;;;;;;;;;;5053917;28;20049;-64
2023/10/22 12:42:10;;;;;;;0.95;0.30;;;;;;;;;;5064341;28;20505;-65
2023/10/22 12:44:37;;;;;;;6.03;0.40;;;;;;;;;;5060362;28;20590;-63
2023/10/22 12:47:12;;;;;;;3.80;0.25;;;;;;;;;;5061475;28;20060;-66
2023/10/22 12:49:39;;;;;;;0.82;0.28;;;;;;;;;;5054221;28;20044;-63
2023/10/22 12:52:07;;;;;;;1.70;0.30;;;;;;;;;;5062272;28;20045;-64
2023/10/22 12:54:35;;;;;;;1.33;0.20;;;;;;;;;;5062361;28;20044;-64
2023/10/22 12:57:03;;;;;;;0.82;0.30;;;;;;;;;;5060519;28;20102;-64
2023/10/22 12:59:30;;;;;;;1.30;0.40;;;;;;;;;;5055693;28;20049;-65
2023/10/22 13:01:57;;;;;;;1.35;0.40;;;;;;;;;;5058354;28;20055;-65
2023/10/22 13:04:26;;;;;;;3.95;0.40;;;;;;;;;;5055654;28;20372;-65
2023/10/22 13:06:53;;;;;;;0.70;0.30;;;;;;;;;;5056222;28;20472;-64
2023/10/22 13:09:21;;;;;;;5.65;0.47;;;;;;;;;;5055231;28;20040;-64
2023/10/22 13:11:48;;;;;;;3.92;0.73;;;;;;;;;;5058964;28;20052;-64
2023/10/22 13:14:19;;;;;;;2.40;0.40;;;;;;;;;;5058254;28;20037;-67
2023/10/22 13:16:46;;;;;;;0.45;0.20;;;;;;;;;;5055019;28;20060;-65
2023/10/22 13:19:13;;;;;;;1.38;0.30;;;;;;;;;;5058350;28;20049;-66
2023/10/22 13:21:43;;;;;;;1.70;0.30;;;;;;;;;;5064747;28;20082;-64
2023/10/22 13:24:10;;;;;;;2.97;0.50;;;;;;;;;;5065193;28;20393;-64
2023/10/22 13:26:37;;;;;;;2.95;0.93;;;;;;;;;;5066535;28;20403;-65
2023/10/22 13:29:07;;;;;;;3.10;0.38;;;;;;;;;;5065734;28;20045;-66
2023/10/22 13:31:34;;;;;;;4.38;0.38;;;;;;;;;;5058988;28;20053;-67
2023/10/22 13:34:01;;;;;;;3.90;0.50;;;;;;;;;;5059932;28;20056;-66
2023/10/22 13:36:29;;;;;;;1.17;0.30;;;;;;;;;;5064480;28;20067;-64
2023/10/22 13:38:57;;;;;;;2.83;0.47;;;;;;;;;;5059011;28;20044;-64
2023/10/22 13:41:24;;;;;;;2.28;0.30;;;;;;;;;;5070004;28;20442;-64
2023/10/22 13:43:52;;;;;;;3.97;0.40;;;;;;;;;;5054955;28;20455;-64
2023/10/22 13:46:19;;;;;;;4.80;0.65;;;;;;;;;;5061682;28;20049;-66
2023/10/22 13:48:46;;;;;;;1.85;0.40;;;;;;;;;;5068141;28;20070;-66
2023/10/22 13:51:13;;;;;;;1.77;0.45;;;;;;;;;;5061313;28;20041;-67
2023/10/22 13:53:41;;;;;;;1.70;0.38;;;;;;;;;;5067158;28;20049;-65
2023/10/22 13:56:09;;;;;;;3.92;0.75;;;;;;;;;;5063467;28;20480;-65
2023/10/22 13:58:36;;;;;;;1.45;0.40;;;;;;;;;;5064599;28;20067;-65
2023/10/22 14:01:04;;;;;;;4.25;0.60;;;;;;;;;;5065645;28;20052;-65
2023/10/22 14:03:31;;;;;;;1.45;0.55;;;;;;;;;;5067842;28;20044;-65
2023/10/22 14:05:58;;;;;;;3.33;0.38;;;;;;;;;;5059206;28;20057;-64
2023/10/22 14:08:25;;;;;;;1.10;0.35;;;;;;;;;;5064626;28;20119;-65
2023/10/22 14:10:53;;;;;;;1.38;0.30;;;;;;;;;;5067739;28;20480;-65
2023/10/22 14:13:22;;;;;;;4.88;0.50;;;;;;;;;;5062481;28;20525;-65
2023/10/22 14:15:49;;;;;;;1.33;0.40;;;;;;;;;;5059658;28;20058;-65
2023/10/22 14:18:17;;;;;;;2.67;0.45;;;;;;;;;;5056807;28;20045;-65
2023/10/22 14:20:45;;;;;;;2.60;0.50;;;;;;;;;;5058305;28;20167;-66
2023/10/22 14:23:12;;;;;;;1.92;0.40;;;;;;;;;;5060404;28;20056;-67
2023/10/22 14:25:39;;;;;;;1.45;0.40;;;;;;;;;;5057853;28;20491;-66
2023/10/22 14:28:07;;;;;;;1.67;0.40;;;;;;;;;;5061080;28;20483;-66
2023/10/22 14:30:39;;;;;;;2.38;0.30;;;;;;;;;;5062847;28;20135;-65
2023/10/22 14:33:07;;;;;;;5.93;0.70;;;;;;;;;;5054870;28;20049;-64
2023/10/22 14:35:34;;;;;;;1.45;0.40;;;;;;;;;;5059481;28;20391;-66
2023/10/22 14:38:01;;;;;;;1.83;0.38;;;;;;;;;;5061844;28;20060;-66
2023/10/22 14:40:28;;;;;;;1.48;0.40;;;;;;;;;;5064848;28;20055;-65
2023/10/22 14:42:56;;;;;;;2.45;0.40;;;;;;;;;;5068681;28;20071;-65
2023/10/22 14:45:23;;;;;;;0.98;0.30;;;;;;;;;;5058602;28;20044;-65
2023/10/22 14:47:52;;;;;;;2.58;0.40;;;;;;;;;;5057642;28;20041;-65